Time;durP1;ratioP1;P1;durP2;ratioP2;P2;SDS_P1;SDS_P2;PMS_P1;PMS_P2;Temp;Humidity;BMP_temperature;BMP_pressure;BME280_temperature;BME280_humidity;BME280_pressure;Samples;Min_cycle;Max_cycle;Signal;HPM_P1;HPM_P2
2023/06/05 00:01:56;;;;;;;2.15;1.70;;;16.60;73.10;;;;;;5071784;28;20204;-62
2023/06/05 00:04:23;;;;;;;3.45;1.92;;;16.60;73.20;;;;;;5071634;28;20220;-60
2023/06/05 00:06:50;;;;;;;2.92;2.03;;;16.50;73.00;;;;;;5071444;28;20235;-59
2023/06/05 00:09:17;;;;;;;4.28;2.10;;;16.50;73.20;;;;;;5071444;28;20201;-61
2023/06/05 00:11:43;;;;;;;2.45;2.08;;;16.40;73.80;;;;;;5071518;28;20212;-60
2023/06/05 00:14:10;;;;;;;4.63;2.30;;;16.40;74.20;;;;;;5071354;28;20285;-60
2023/06/05 00:16:37;;;;;;;1.60;1.50;;;16.30;74.90;;;;;;5071379;28;20204;-60
2023/06/05 00:19:05;;;;;;;3.08;2.00;;;16.20;75.20;;;;;;5071442;28;20212;-60
2023/06/05 00:21:32;;;;;;;2.33;1.70;;;16.20;76.30;;;;;;5071549;28;20215;-61
2023/06/05 00:23:58;;;;;;;6.70;2.20;;;16.10;76.90;;;;;;5071151;28;20229;-60
2023/06/05 00:26:26;;;;;;;3.90;2.20;;;16.00;77.60;;;;;;5070947;28;20205;-60
2023/06/05 00:28:52;;;;;;;3.63;1.90;;;15.90;77.80;;;;;;5071132;28;20207;-60
2023/06/05 00:31:21;;;;;;;3.37;2.00;;;15.80;78.50;;;;;;5071347;28;20589;-61
2023/06/05 00:33:48;;;;;;;2.80;2.20;;;15.70;79.50;;;;;;5071288;28;20228;-61
2023/06/05 00:36:17;;;;;;;2.10;1.70;;;15.70;78.90;;;;;;5071585;28;20205;-61
2023/06/05 00:38:44;;;;;;;2.80;2.10;;;15.40;78.90;;;;;;5071683;28;20764;-60
2023/06/05 00:41:11;;;;;;;2.53;1.67;;;15.60;79.80;;;;;;5071291;28;20239;-60
2023/06/05 00:43:38;;;;;;;2.47;1.95;;;15.50;80.20;;;;;;5071172;28;20800;-60
2023/06/05 00:46:06;;;;;;;2.58;2.03;;;15.50;80.50;;;;;;5070747;28;20629;-60
2023/06/05 00:48:33;;;;;;;6.35;2.00;;;15.50;80.80;;;;;;5071144;28;20256;-60
2023/06/05 00:51:01;;;;;;;2.03;1.73;;;15.40;81.20;;;;;;5071218;28;20220;-60
2023/06/05 00:53:33;;;;;;;3.13;1.98;;;15.40;81.30;;;;;;5071130;28;20262;-59
2023/06/05 00:56:01;;;;;;;3.87;2.27;;;15.30;81.70;;;;;;5071034;28;20204;-60
2023/06/05 00:58:30;;;;;;;4.00;1.90;;;15.20;82.30;;;;;;5071206;28;20270;-61
2023/06/05 01:00:58;;;;;;;2.30;1.80;;;15.20;82.50;;;;;;5071099;28;20207;-62
2023/06/05 01:03:29;;;;;;;3.40;1.90;;;15.20;83.00;;;;;;5070786;28;20208;-60
2023/06/05 01:06:02;;;;;;;3.27;1.97;;;15.10;83.60;;;;;;5070447;28;20262;-61
2023/06/05 01:08:38;;;;;;;2.80;2.00;;;15.10;83.70;;;;;;5071057;28;20311;-61
2023/06/05 01:11:08;;;;;;;4.27;2.17;;;15.00;84.10;;;;;;5070756;28;20306;-61
2023/06/05 01:13:40;;;;;;;2.87;2.07;;;15.00;84.30;;;;;;5096245;22;20526;-58
2023/06/05 01:16:09;;;;;;;4.37;2.07;;;15.10;83.80;;;;;;5057648;28;20222;-59
2023/06/05 01:18:40;;;;;;;3.33;2.23;;;15.10;83.20;;;;;;5068992;28;20201;-58
2023/06/05 01:21:13;;;;;;;2.77;2.00;;;15.20;83.00;;;;;;5070609;28;20205;-57
2023/06/05 01:23:44;;;;;;;2.60;1.90;;;15.20;82.50;;;;;;5070429;28;20289;-58
2023/06/05 01:26:17;;;;;;;4.67;2.23;;;15.20;83.00;;;;;;5070262;28;20213;-58
2023/06/05 01:28:48;;;;;;;3.13;2.03;;;15.20;83.60;;;;;;5070275;28;20229;-58
2023/06/05 01:31:19;;;;;;;3.97;2.10;;;15.10;83.80;;;;;;5070388;28;20206;-58
2023/06/05 01:33:52;;;;;;;3.37;2.03;;;15.10;83.80;;;;;;5070403;28;20295;-57
2023/06/05 01:36:19;;;;;;;5.77;2.23;;;15.10;84.00;;;;;;5069892;28;20209;-58
2023/06/05 01:38:49;;;;;;;4.70;2.10;;;15.00;83.90;;;;;;5070628;28;20304;-57
2023/06/05 01:41:17;;;;;;;5.40;2.07;;;15.00;84.30;;;;;;5073937;28;20597;-58
2023/06/05 01:43:47;;;;;;;2.37;1.80;;;15.00;84.30;;;;;;5073768;28;20204;-59
2023/06/05 01:46:14;;;;;;;3.22;2.17;;;15.00;84.70;;;;;;5073812;28;20593;-58
2023/06/05 01:48:42;;;;;;;3.70;1.90;;;14.90;85.00;;;;;;5073721;28;20224;-59
2023/06/05 01:51:09;;;;;;;3.37;2.30;;;14.90;85.00;;;;;;5074078;28;20595;-57
2023/06/05 01:53:36;;;;;;;6.38;2.60;;;14.90;85.00;;;;;;5073788;28;20216;-58
2023/06/05 01:56:06;;;;;;;4.03;1.90;;;14.90;85.50;;;;;;5073501;28;20291;-57
2023/06/05 01:58:33;;;;;;;4.27;2.30;;;14.90;86.10;;;;;;5074035;28;20201;-57
2023/06/05 02:01:00;;;;;;;2.40;1.93;;;14.90;89.30;;;;;;5074017;28;20204;-58
2023/06/05 02:03:27;;;;;;;3.30;2.13;;;14.80;90.00;;;;;;5074002;28;20204;-57
2023/06/05 02:05:54;;;;;;;4.30;2.50;;;14.80;90.60;;;;;;5073618;28;20232;-58
2023/06/05 02:08:22;;;;;;;2.13;1.93;;;14.80;90.70;;;;;;5073600;28;20653;-58
2023/06/05 02:10:49;;;;;;;3.47;1.93;;;14.70;91.20;;;;;;5073397;28;20201;-57
2023/06/05 02:13:18;;;;;;;3.00;1.87;;;14.60;91.30;;;;;;5073473;28;20205;-58
2023/06/05 02:15:45;;;;;;;3.53;2.20;;;14.60;91.10;;;;;;5073067;28;20328;-57
2023/06/05 02:18:12;;;;;;;2.90;2.00;;;14.60;90.80;;;;;;5073358;28;20201;-57
2023/06/05 02:20:41;;;;;;;2.73;2.10;;;14.60;91.00;;;;;;5073214;28;20270;-57
2023/06/05 02:23:08;;;;;;;2.60;2.30;;;14.60;91.20;;;;;;5073228;28;20219;-57
2023/06/05 02:25:35;;;;;;;3.00;1.90;;;14.50;91.60;;;;;;5073438;28;20221;-59
2023/06/05 02:28:01;;;;;;;3.27;2.30;;;14.50;92.00;;;;;;5072955;28;20220;-57
2023/06/05 02:30:30;;;;;;;3.30;2.00;;;14.50;92.10;;;;;;5073384;28;20205;-57
2023/06/05 02:33:00;;;;;;;4.27;2.30;;;14.50;92.30;;;;;;5073190;28;20212;-58
2023/06/05 02:35:27;;;;;;;4.27;2.20;;;14.50;92.50;;;;;;5072888;28;20233;-58
2023/06/05 02:37:56;;;;;;;3.10;2.03;;;14.40;92.50;;;;;;5072456;28;20432;-57
2023/06/05 02:40:23;;;;;;;2.47;1.90;;;14.40;92.80;;;;;;5073045;28;20205;-57
2023/06/05 02:42:49;;;;;;;3.43;2.37;;;14.30;94.20;;;;;;5072993;28;20208;-58
2023/06/05 02:45:16;;;;;;;4.37;2.30;;;14.20;94.30;;;;;;5072849;28;20258;-58
2023/06/05 02:47:44;;;;;;;4.00;2.10;;;14.20;94.40;;;;;;5072571;28;20247;-58
2023/06/05 02:50:11;;;;;;;4.60;2.10;;;14.10;94.40;;;;;;5071998;28;20212;-58
2023/06/05 02:52:39;;;;;;;2.57;1.97;;;14.10;94.60;;;;;;5072404;28;20212;-57
2023/06/05 02:55:07;;;;;;;3.13;2.70;;;14.10;94.70;;;;;;5072756;28;20315;-57
2023/06/05 02:57:40;;;;;;;6.50;2.00;;;14.00;94.50;;;;;;5072517;28;20396;-58
2023/06/05 03:00:08;;;;;;;4.60;2.20;;;14.00;94.60;;;;;;5072597;28;20220;-58
2023/06/05 03:02:36;;;;;;;4.83;2.23;;;14.00;94.40;;;;;;5072510;28;20219;-58
2023/06/05 03:05:07;;;;;;;3.13;2.00;;;14.00;94.50;;;;;;5072310;28;20251;-58
2023/06/05 03:07:34;;;;;;;2.33;1.77;;;14.00;94.70;;;;;;5072401;28;20673;-58
2023/06/05 03:10:01;;;;;;;2.60;2.10;;;13.90;94.90;;;;;;5072884;28;20239;-58
2023/06/05 03:12:27;;;;;;;3.53;2.37;;;13.80;95.20;;;;;;5072705;28;20231;-58
2023/06/05 03:14:54;;;;;;;5.60;2.17;;;13.80;95.20;;;;;;5072303;28;20323;-58
2023/06/05 03:17:23;;;;;;;4.27;2.20;;;13.70;95.20;;;;;;5072072;28;20251;-59
2023/06/05 03:19:49;;;;;;;3.33;2.30;;;13.70;95.50;;;;;;5072722;28;20209;-58
2023/06/05 03:22:17;;;;;;;3.53;2.20;;;13.60;95.80;;;;;;5072406;28;20204;-58
2023/06/05 03:24:44;;;;;;;6.23;2.40;;;13.50;96.00;;;;;;5072361;28;20228;-58
2023/06/05 03:27:11;;;;;;;4.53;2.40;;;13.50;96.30;;;;;;5072068;28;20205;-60
2023/06/05 03:29:38;;;;;;;3.33;2.23;;;13.40;96.70;;;;;;5072212;28;20697;-58
2023/06/05 03:32:04;;;;;;;3.57;2.13;;;13.30;96.80;;;;;;5072067;28;20689;-59
2023/06/05 03:34:32;;;;;;;2.97;2.03;;;13.30;97.00;;;;;;5071965;28;20229;-60
2023/06/05 03:36:59;;;;;;;4.43;2.43;;;13.30;96.90;;;;;;5071745;28;20231;-58
2023/06/05 03:39:27;;;;;;;3.03;2.53;;;13.30;97.00;;;;;;5072310;28;20262;-58
2023/06/05 03:41:54;;;;;;;5.23;2.50;;;13.30;97.20;;;;;;5071825;28;20666;-58
2023/06/05 03:44:22;;;;;;;3.93;2.37;;;13.30;97.30;;;;;;5071685;28;20232;-59
2023/06/05 03:46:49;;;;;;;4.67;2.77;;;13.20;97.70;;;;;;5071522;28;20208;-58
2023/06/05 03:49:16;;;;;;;5.23;3.10;;;13.20;98.00;;;;;;5071730;28;20319;-59
2023/06/05 03:51:44;;;;;;;4.20;2.97;;;13.20;98.00;;;;;;5071757;28;20207;-58
2023/06/05 03:54:12;;;;;;;5.90;3.23;;;13.20;98.20;;;;;;5071773;28;20229;-59
2023/06/05 03:56:43;;;;;;;6.00;3.27;;;13.20;98.30;;;;;;5070988;28;20205;-59
2023/06/05 03:59:18;;;;;;;3.77;2.53;;;13.30;98.30;;;;;;5071511;28;20646;-59
2023/06/05 04:01:44;;;;;;;5.23;2.73;;;13.30;98.30;;;;;;5071282;28;20204;-57
2023/06/05 04:04:12;;;;;;;5.17;2.77;;;13.30;98.40;;;;;;5071315;28;20706;-58
2023/06/05 04:06:40;;;;;;;3.43;2.50;;;13.30;98.60;;;;;;5070985;28;20581;-58
2023/06/05 04:09:11;;;;;;;4.77;2.60;;;13.20;98.90;;;;;;5071046;28;20235;-58
2023/06/05 04:11:38;;;;;;;5.03;2.57;;;13.00;99.30;;;;;;5071041;28;20209;-58
2023/06/05 04:14:07;;;;;;;3.57;2.60;;;12.90;99.40;;;;;;5070933;28;20753;-59
2023/06/05 04:16:34;;;;;;;4.27;2.40;;;13.00;99.40;;;;;;5071262;28;20670;-58
2023/06/05 04:19:02;;;;;;;3.43;2.50;;;13.00;99.30;;;;;;5071317;28;20197;-58
2023/06/05 04:21:29;;;;;;;3.77;2.73;;;13.10;99.50;;;;;;5071184;28;20588;-58
2023/06/05 04:23:56;;;;;;;3.90;2.63;;;13.10;99.30;;;;;;5071051;28;20221;-58
2023/06/05 04:26:26;;;;;;;3.30;2.43;;;13.20;99.20;;;;;;5070929;28;20216;-58
2023/06/05 04:28:55;;;;;;;5.00;2.80;;;13.30;99.10;;;;;;5071227;28;20232;-58
2023/06/05 04:31:24;;;;;;;3.73;2.60;;;13.40;99.00;;;;;;5071210;28;20643;-58
2023/06/05 04:33:51;;;;;;;4.90;2.80;;;13.50;98.80;;;;;;5071213;28;20229;-58
2023/06/05 04:36:18;;;;;;;3.10;2.50;;;13.60;98.70;;;;;;5070941;28;20213;-56
2023/06/05 04:38:46;;;;;;;4.77;2.87;;;13.60;98.60;;;;;;5070969;28;20263;-58
2023/06/05 04:41:13;;;;;;;6.07;2.90;;;13.80;98.50;;;;;;5071138;28;20208;-57
2023/06/05 04:43:40;;;;;;;3.57;2.77;;;13.90;98.30;;;;;;5071087;28;20220;-58
2023/06/05 04:46:07;;;;;;;4.40;2.90;;;14.20;98.00;;;;;;5070704;28;20673;-59
2023/06/05 04:48:36;;;;;;;7.43;3.50;;;14.40;97.60;;;;;;5070840;28;20274;-58
2023/06/05 04:51:03;;;;;;;4.70;3.57;;;14.70;97.00;;;;;;5070987;28;20650;-57
2023/06/05 04:53:31;;;;;;;6.27;3.33;;;15.00;96.40;;;;;;5071018;28;20231;-58
2023/06/05 04:56:00;;;;;;;3.58;2.80;;;15.60;95.80;;;;;;5070626;28;20690;-58
2023/06/05 04:58:26;;;;;;;5.75;3.67;;;16.80;94.20;;;;;;5070852;28;20205;-58
2023/06/05 05:00:53;;;;;;;6.68;3.78;;;18.50;92.10;;;;;;5070798;28;20269;-57
2023/06/05 05:03:20;;;;;;;9.98;3.42;;;20.30;87.50;;;;;;5070911;28;20216;-58
2023/06/05 05:05:48;;;;;;;4.22;3.15;;;21.70;79.40;;;;;;5070463;28;20717;-58
2023/06/05 05:08:15;;;;;;;4.40;3.22;;;22.90;75.80;;;;;;5070991;28;20220;-58
2023/06/05 05:10:42;;;;;;;6.57;3.05;;;24.00;73.10;;;;;;5070770;28;20258;-58
2023/06/05 05:13:08;;;;;;;5.53;3.53;;;25.20;68.70;;;;;;5070656;28;20662;-58
2023/06/05 05:15:35;;;;;;;3.92;2.83;;;26.40;64.90;;;;;;5073660;28;20814;-58
2023/06/05 05:18:03;;;;;;;4.30;2.63;;;27.40;61.80;;;;;;5074393;28;20277;-58
2023/06/05 05:20:32;;;;;;;6.05;2.88;;;28.30;58.60;;;;;;5074492;28;20212;-57
2023/06/05 05:23:00;;;;;;;2.90;2.60;;;29.00;57.20;;;;;;5074678;28;20208;-58
2023/06/05 05:25:27;;;;;;;6.50;3.38;;;29.60;55.00;;;;;;5074614;28;20308;-58
2023/06/05 05:27:54;;;;;;;5.22;3.15;;;30.20;54.10;;;;;;5074849;28;20284;-58
2023/06/05 05:30:21;;;;;;;5.55;4.30;;;30.80;53.10;;;;;;5074635;28;20200;-57
2023/06/05 05:32:47;;;;;;;3.83;2.55;;;30.90;51.60;;;;;;5074765;28;20205;-61
2023/06/05 05:35:14;;;;;;;5.28;3.75;;;30.60;50.90;;;;;;5074612;28;20224;-62
2023/06/05 05:37:41;;;;;;;4.75;3.10;;;30.00;52.20;;;;;;5074373;28;20724;-60
2023/06/05 05:40:10;;;;;;;5.00;2.90;;;30.60;51.80;;;;;;5074093;28;20534;-58
2023/06/05 05:42:37;;;;;;;5.45;3.20;;;31.30;49.70;;;;;;5074355;28;20583;-58
2023/06/05 05:45:05;;;;;;;4.63;3.10;;;31.30;50.20;;;;;;5074013;28;20257;-58
2023/06/05 05:47:31;;;;;;;5.40;3.90;;;31.70;48.90;;;;;;5073889;28;20350;-59
2023/06/05 05:49:58;;;;;;;4.22;3.33;;;31.80;49.60;;;;;;5074290;28;20251;-57
2023/06/05 05:52:25;;;;;;;4.00;3.28;;;32.40;48.30;;;;;;5074536;28;20209;-58
2023/06/05 05:54:52;;;;;;;5.65;5.03;;;32.90;46.80;;;;;;5073920;28;20225;-59
2023/06/05 05:57:20;;;;;;;6.05;3.00;;;32.40;48.10;;;;;;5073845;28;20236;-64
2023/06/05 05:59:47;;;;;;;4.82;2.60;;;32.30;47.70;;;;;;5073995;28;20208;-62
2023/06/05 06:02:13;;;;;;;5.43;3.17;;;31.90;48.20;;;;;;5056167;28;20508;-64
2023/06/05 06:04:43;;;;;;;3.60;2.90;;;32.00;48.50;;;;;;5053471;28;20226;-64
2023/06/05 06:07:10;;;;;;;4.18;2.75;;;32.90;48.20;;;;;;5053647;28;20231;-59
2023/06/05 06:09:38;;;;;;;4.43;3.08;;;33.90;45.90;;;;;;5053638;28;20229;-60
2023/06/05 06:12:05;;;;;;;10.07;7.75;;;34.30;46.20;;;;;;5053533;28;20212;-60
2023/06/05 06:14:34;;;;;;;9.50;3.58;;;35.30;45.40;;;;;;5053217;28;20244;-62
2023/06/05 06:17:02;;;;;;;8.45;3.10;;;36.40;44.20;;;;;;5052866;28;20202;-61
2023/06/05 06:19:28;;;;;;;6.05;2.60;;;37.40;42.20;;;;;;5053599;28;20202;-60
2023/06/05 06:21:55;;;;;;;3.83;2.65;;;37.80;40.30;;;;;;5053526;28;20213;-59
2023/06/05 06:24:23;;;;;;;6.18;3.22;;;37.40;41.30;;;;;;5053713;28;20581;-60
2023/06/05 06:26:52;;;;;;;4.72;2.75;;;37.20;42.00;;;;;;5053005;28;20300;-63
2023/06/05 06:29:19;;;;;;;5.63;2.65;;;37.50;42.00;;;;;;5053081;28;20604;-62
2023/06/05 06:31:49;;;;;;;4.93;2.80;;;38.00;40.60;;;;;;5053817;28;20214;-64
2023/06/05 06:34:16;;;;;;;9.02;2.97;;;38.00;40.50;;;;;;5053305;28;20229;-60
2023/06/05 06:36:44;;;;;;;4.82;2.53;;;38.80;39.90;;;;;;5053320;28;20255;-61
2023/06/05 06:39:11;;;;;;;3.88;2.40;;;38.80;39.80;;;;;;5053160;28;20391;-61
2023/06/05 06:41:38;;;;;;;2.63;2.40;;;38.90;39.80;;;;;;5052822;28;20221;-60
2023/06/05 06:44:05;;;;;;;3.92;2.38;;;39.60;38.20;;;;;;5053429;28;20224;-61
2023/06/05 06:46:32;;;;;;;4.55;2.40;;;40.30;37.90;;;;;;5052810;28;20234;-60
2023/06/05 06:49:00;;;;;;;3.00;2.30;;;40.90;37.10;;;;;;5052904;28;20232;-61
2023/06/05 06:51:27;;;;;;;3.67;2.20;;;41.40;36.90;;;;;;5053227;28;20255;-61
2023/06/05 06:53:54;;;;;;;3.38;2.20;;;42.00;35.90;;;;;;5052619;28;20229;-60
2023/06/05 06:56:21;;;;;;;2.92;2.20;;;42.40;35.50;;;;;;5052606;28;20334;-61
2023/06/05 06:58:48;;;;;;;3.05;2.15;;;41.50;35.60;;;;;;5053331;28;20237;-62
2023/06/05 07:01:15;;;;;;;4.32;2.20;;;41.20;35.70;;;;;;5052698;28;20615;-60
2023/06/05 07:03:42;;;;;;;4.78;2.30;;;40.50;35.80;;;;;;5052676;28;20614;-60
2023/06/05 07:06:12;;;;;;;3.55;2.85;;;40.50;36.10;;;;;;5052734;28;20207;-61
2023/06/05 07:08:38;;;;;;;6.75;2.90;;;40.70;35.70;;;;;;5052543;28;20654;-62
2023/06/05 07:11:05;;;;;;;6.07;2.38;;;41.00;35.20;;;;;;5052791;28;20666;-60
2023/06/05 07:13:32;;;;;;;8.70;7.25;;;41.70;35.20;;;;;;5053143;28;20209;-62
2023/06/05 07:15:59;;;;;;;5.43;2.50;;;42.60;34.50;;;;;;5052963;28;20216;-62
2023/06/05 07:18:26;;;;;;;3.03;1.90;;;43.40;33.30;;;;;;5052195;28;20212;-60
2023/06/05 07:20:53;;;;;;;4.00;2.05;;;43.00;33.40;;;;;;5052417;28;20689;-60
2023/06/05 07:23:21;;;;;;;4.88;2.25;;;42.50;34.50;;;;;;5052325;28;20201;-61
2023/06/05 07:25:48;;;;;;;3.47;2.17;;;42.50;33.50;;;;;;5052236;28;20275;-60
2023/06/05 07:28:15;;;;;;;2.45;2.17;;;41.60;34.50;;;;;;5052530;28;20213;-60
2023/06/05 07:30:44;;;;;;;2.10;1.90;;;41.40;34.30;;;;;;5052213;28;20228;-61
2023/06/05 07:33:11;;;;;;;3.78;2.45;;;40.10;36.10;;;;;;5052231;28;20201;-60
2023/06/05 07:35:38;;;;;;;3.20;2.20;;;40.00;35.80;;;;;;5052140;28;20316;-59
2023/06/05 07:38:05;;;;;;;4.43;2.00;;;40.30;35.90;;;;;;5051956;28;20263;-61
2023/06/05 07:40:33;;;;;;;5.75;2.30;;;39.80;36.30;;;;;;5052280;28;20201;-58
2023/06/05 07:43:00;;;;;;;7.35;2.53;;;38.30;37.50;;;;;;5051695;28;20558;-60
2023/06/05 07:45:26;;;;;;;3.45;2.47;;;35.90;40.10;;;;;;5051751;28;20697;-60
2023/06/05 07:47:53;;;;;;;5.13;2.38;;;34.40;42.00;;;;;;5051700;28;20281;-61
2023/06/05 07:50:20;;;;;;;3.33;2.38;;;34.90;42.10;;;;;;5051562;28;20222;-60
2023/06/05 07:52:46;;;;;;;3.53;2.30;;;36.30;40.40;;;;;;5051584;28;20212;-59
2023/06/05 07:55:13;;;;;;;4.90;2.58;;;36.40;40.60;;;;;;5051858;28;20229;-60
2023/06/05 07:57:41;;;;;;;2.60;2.15;;;37.10;40.00;;;;;;5051636;28;20221;-59
2023/06/05 08:00:10;;;;;;;4.75;2.55;;;37.20;39.90;;;;;;5051862;28;20201;-59
2023/06/05 08:02:38;;;;;;;3.40;2.38;;;36.40;41.10;;;;;;5051655;28;20304;-62
2023/06/05 08:05:06;;;;;;;3.35;2.30;;;36.10;41.40;;;;;;5051225;28;20672;-59
2023/06/05 08:07:33;;;;;;;4.80;2.50;;;36.80;40.80;;;;;;5051635;28;20201;-60
2023/06/05 08:09:59;;;;;;;4.75;2.50;;;37.90;39.60;;;;;;5051652;28;20231;-60
2023/06/05 08:12:26;;;;;;;5.72;2.58;;;37.40;40.40;;;;;;5051533;28;20205;-61
2023/06/05 08:14:54;;;;;;;4.05;2.22;;;37.70;41.30;;;;;;5051035;28;20241;-64
2023/06/05 08:17:21;;;;;;;8.13;2.30;;;37.50;40.50;;;;;;5050458;28;20306;-60
2023/06/05 08:19:48;;;;;;;3.30;2.60;;;37.30;40.90;;;;;;5051281;28;20197;-60
2023/06/05 08:22:14;;;;;;;4.15;2.50;;;37.80;40.50;;;;;;5051594;28;20623;-63
2023/06/05 08:24:41;;;;;;;3.92;2.60;;;38.60;40.00;;;;;;5051349;28;20221;-61
2023/06/05 08:27:08;;;;;;;4.70;2.63;;;38.80;39.60;;;;;;5050961;28;20212;-60
2023/06/05 08:29:36;;;;;;;6.80;3.25;;;38.20;40.30;;;;;;5051089;28;20225;-60
2023/06/05 08:32:06;;;;;;;3.15;2.40;;;37.10;41.70;;;;;;5051196;28;20229;-60
2023/06/05 08:34:33;;;;;;;2.95;2.30;;;36.80;42.50;;;;;;5051473;28;20229;-59
2023/06/05 08:37:00;;;;;;;3.83;2.50;;;37.20;42.20;;;;;;5051002;28;20201;-61
2023/06/05 08:39:31;;;;;;;2.80;2.50;;;38.00;41.40;;;;;;5051201;28;20259;-60
2023/06/05 08:42:00;;;;;;;6.63;2.88;;;38.60;41.00;;;;;;5051351;28;20250;-61
2023/06/05 08:44:28;;;;;;;4.97;2.90;;;37.60;41.70;;;;;;5050777;28;20741;-61
2023/06/05 08:47:00;;;;;;;4.80;2.92;;;36.10;43.50;;;;;;5050833;28;20206;-63
2023/06/05 08:49:30;;;;;;;4.47;2.92;;;34.30;45.70;;;;;;5054490;28;20637;-62
2023/06/05 08:52:01;;;;;;;3.90;3.22;;;32.90;48.10;;;;;;5055046;28;20205;-62
2023/06/05 08:54:28;;;;;;;5.00;3.10;;;31.80;50.20;;;;;;5054575;28;20240;-62
2023/06/05 08:56:55;;;;;;;6.20;3.10;;;30.80;52.30;;;;;;5054596;28;20213;-62
2023/06/05 08:59:24;;;;;;;5.50;3.47;;;30.00;53.80;;;;;;5054948;28;20666;-61
2023/06/05 09:01:51;;;;;;;5.35;3.42;;;29.50;55.80;;;;;;5055253;28;20205;-62
2023/06/05 09:04:18;;;;;;;6.40;3.75;;;29.20;55.80;;;;;;5055104;28;20230;-62
2023/06/05 09:06:48;;;;;;;8.07;3.20;;;28.80;56.10;;;;;;5054488;28;20288;-61
2023/06/05 09:09:16;;;;;;;5.00;3.35;;;28.30;55.80;;;;;;5054951;28;20209;-62
2023/06/05 09:11:42;;;;;;;5.80;3.20;;;27.90;56.10;;;;;;5054837;28;20236;-64
2023/06/05 09:14:10;;;;;;;3.42;3.13;;;27.70;56.80;;;;;;5054833;28;20240;-63
2023/06/05 09:16:38;;;;;;;5.55;3.38;;;27.60;58.00;;;;;;5054512;28;20255;-61
2023/06/05 09:19:06;;;;;;;5.63;3.22;;;27.30;58.60;;;;;;5054159;28;20690;-62
2023/06/05 09:21:33;;;;;;;5.65;3.17;;;27.00;59.50;;;;;;5054429;28;20271;-62
2023/06/05 09:24:13;;;;;;;3.55;3.00;;;26.70;59.80;;;;;;5054300;28;20230;-62
2023/06/05 09:26:51;;;;;;;3.72;3.03;;;26.50;60.70;;;;;;5054543;28;20213;-60
2023/06/05 09:29:23;;;;;;;5.93;3.00;;;26.40;60.60;;;;;;5054275;28;20713;-61
2023/06/05 09:31:50;;;;;;;5.57;3.08;;;26.30;60.40;;;;;;5054028;28;20206;-63
2023/06/05 09:34:26;;;;;;;4.03;2.75;;;26.10;58.30;;;;;;5054469;28;20571;-61
2023/06/05 09:36:54;;;;;;;4.63;2.83;;;25.90;58.80;;;;;;5053719;28;20294;-61
2023/06/05 09:39:24;;;;;;;6.00;2.90;;;25.80;56.50;;;;;;5056366;28;20275;-61
2023/06/05 09:41:52;;;;;;;8.75;2.80;;;25.60;56.00;;;;;;5054362;28;20209;-60
2023/06/05 09:44:19;;;;;;;3.75;2.20;;;25.70;53.90;;;;;;5053736;28;20257;-59
2023/06/05 09:46:56;;;;;;;3.42;2.45;;;25.80;53.40;;;;;;5053731;28;20267;-60
2023/06/05 09:49:26;;;;;;;5.95;2.80;;;25.90;56.00;;;;;;5054029;28;20694;-62
2023/06/05 09:51:53;;;;;;;3.47;2.55;;;26.10;55.70;;;;;;5049891;28;20248;-61
2023/06/05 09:54:25;;;;;;;6.03;2.30;;;26.20;54.60;;;;;;5049639;28;20226;-63
2023/06/05 09:56:57;;;;;;;6.80;2.50;;;26.20;52.30;;;;;;5041102;28;20210;-64
2023/06/05 09:59:26;;;;;;;2.63;2.10;;;26.30;51.50;;;;;;5052423;28;20209;-65
2023/06/05 10:01:54;;;;;;;4.38;2.40;;;26.40;51.00;;;;;;5053146;28;20212;-64
2023/06/05 10:04:24;;;;;;;3.78;2.75;;;26.30;50.60;;;;;;5052290;28;20232;-59
2023/06/05 10:06:53;;;;;;;6.93;3.10;;;26.40;51.70;;;;;;5053209;28;20263;-60
2023/06/05 10:09:20;;;;;;;7.57;2.38;;;26.50;52.30;;;;;;5053574;28;20336;-61
2023/06/05 10:11:50;;;;;;;4.47;2.42;;;26.50;51.60;;;;;;5053697;28;20253;-61
2023/06/05 10:14:18;;;;;;;8.57;2.55;;;26.60;51.90;;;;;;5053419;28;20237;-59
2023/06/05 10:16:50;;;;;;;4.80;2.35;;;26.70;52.40;;;;;;5053585;28;20201;-64
2023/06/05 10:19:19;;;;;;;5.65;2.38;;;26.80;51.70;;;;;;5053657;28;20201;-64
2023/06/05 10:21:47;;;;;;;4.55;2.63;;;27.00;51.20;;;;;;5054174;28;20280;-61
2023/06/05 10:24:19;;;;;;;4.70;2.78;;;27.00;49.90;;;;;;5053495;28;20232;-62
2023/06/05 10:27:18;;;;;;;4.82;2.45;;;27.10;49.50;;;;;;5053786;28;20273;-62
2023/06/05 10:30:12;;;;;;;6.63;2.80;;;27.20;49.70;;;;;;5019966;28;20608;-63
2023/06/05 10:32:52;;;;;;;6.43;2.92;;;26.90;49.80;;;;;;5052303;28;20255;-66
2023/06/05 10:35:34;;;;;;;5.30;2.45;;;26.80;50.10;;;;;;5053217;28;20316;-64
2023/06/05 10:38:13;;;;;;;3.53;2.25;;;26.90;49.50;;;;;;5053638;28;20215;-63
2023/06/05 10:40:40;;;;;;;4.22;2.67;;;26.80;50.20;;;;;;5053370;28;20288;-63
2023/06/05 10:43:30;;;;;;;3.33;2.25;;;26.80;49.90;;;;;;5053564;28;20212;-66
2023/06/05 10:46:00;;;;;;;4.45;2.38;;;26.90;50.20;;;;;;5053068;28;20213;-64
2023/06/05 10:49:05;;;;;;;4.15;2.65;;;27.00;50.50;;;;;;5053589;28;20208;-64
2023/06/05 10:51:37;;;;;;;8.13;2.72;;;27.00;50.60;;;;;;5053024;28;20239;-62
2023/06/05 10:54:06;;;;;;;4.40;3.00;;;27.00;50.50;;;;;;5053411;28;20229;-62
2023/06/05 10:56:56;;;;;;;3.45;2.40;;;27.00;50.20;;;;;;5052901;28;20803;-62
2023/06/05 10:59:24;;;;;;;5.32;2.72;;;27.20;50.20;;;;;;5053141;28;20247;-61
2023/06/05 11:02:26;;;;;;;3.38;2.60;;;27.20;50.20;;;;;;5052948;28;20372;-61
2023/06/05 11:05:16;;;;;;;5.10;2.70;;;27.20;49.90;;;;;;4972090;28;20223;-65
2023/06/05 11:07:45;;;;;;;5.78;2.70;;;27.10;50.00;;;;;;4957790;28;20566;-64
2023/06/05 11:10:20;;;;;;;4.75;2.70;;;27.10;50.50;;;;;;5022870;28;20225;-62
2023/06/05 11:13:03;;;;;;;2.80;2.50;;;27.10;49.40;;;;;;5052031;28;20552;-66
2023/06/05 11:15:45;;;;;;;7.90;2.75;;;27.10;49.90;;;;;;5052810;28;20253;-63
2023/06/05 11:18:31;;;;;;;4.82;3.08;;;27.00;50.20;;;;;;5052797;28;20244;-64
2023/06/05 11:20:59;;;;;;;4.57;2.80;;;27.00;49.60;;;;;;5052604;28;20566;-63
2023/06/05 11:23:28;;;;;;;3.92;2.90;;;27.10;50.10;;;;;;5052798;28;20205;-63
2023/06/05 11:25:57;;;;;;;5.55;2.60;;;27.20;50.00;;;;;;5052430;28;20703;-65
2023/06/05 11:28:48;;;;;;;6.00;2.97;;;27.20;49.40;;;;;;5052993;28;20212;-63
2023/06/05 11:31:29;;;;;;;4.90;3.20;;;27.10;50.40;;;;;;5037166;28;20229;-63
2023/06/05 11:33:57;;;;;;;5.25;2.58;;;26.80;50.60;;;;;;5052582;28;20236;-63
2023/06/05 11:36:25;;;;;;;4.40;3.00;;;26.80;50.60;;;;;;5051949;28;20671;-62
2023/06/05 11:38:55;;;;;;;4.05;2.50;;;26.90;49.80;;;;;;5052462;28;20210;-60
2023/06/05 11:41:24;;;;;;;4.70;3.05;;;27.00;50.30;;;;;;5052353;28;20209;-64
2023/06/05 11:43:51;;;;;;;5.13;2.78;;;27.00;49.80;;;;;;5052407;28;20212;-63
2023/06/05 11:46:18;;;;;;;4.45;3.20;;;27.10;49.50;;;;;;5051858;28;20206;-61
2023/06/05 11:48:46;;;;;;;6.60;3.13;;;27.30;48.80;;;;;;5052263;28;20202;-62
2023/06/05 11:51:14;;;;;;;5.60;2.78;;;27.60;49.20;;;;;;5052189;28;20229;-62
2023/06/05 11:53:47;;;;;;;5.65;2.70;;;27.70;48.80;;;;;;5051687;28;20205;-62
2023/06/05 11:56:16;;;;;;;3.97;3.13;;;27.80;47.70;;;;;;5051231;28;20240;-63
2023/06/05 11:58:44;;;;;;;5.38;3.10;;;27.70;47.50;;;;;;5051838;28;20213;-62
2023/06/05 12:01:14;;;;;;;5.50;3.22;;;27.70;47.80;;;;;;5051862;28;20667;-62
2023/06/05 12:03:41;;;;;;;4.82;3.28;;;27.70;47.80;;;;;;5051975;28;20243;-61
2023/06/05 12:06:09;;;;;;;4.70;2.60;;;27.70;47.90;;;;;;5051779;28;20212;-62
2023/06/05 12:08:37;;;;;;;6.97;3.05;;;27.70;47.30;;;;;;5051767;28;20206;-63
2023/06/05 12:11:04;;;;;;;5.28;2.92;;;27.80;47.50;;;;;;5052085;28;20230;-62
2023/06/05 12:13:47;;;;;;;5.88;3.88;;;27.90;47.60;;;;;;5051911;28;20667;-63
2023/06/05 12:16:15;;;;;;;5.50;3.13;;;28.20;47.00;;;;;;5051664;28;20209;-63
2023/06/05 12:18:42;;;;;;;6.25;2.83;;;28.40;47.10;;;;;;5051500;28;20676;-62
2023/06/05 12:21:20;;;;;;;3.50;2.72;;;28.50;47.20;;;;;;5051941;28;20612;-62
2023/06/05 12:23:48;;;;;;;3.15;2.65;;;28.50;47.20;;;;;;5051200;28;20206;-61
2023/06/05 12:26:16;;;;;;;4.38;2.70;;;28.50;47.10;;;;;;5051284;28;20211;-62
2023/06/05 12:28:44;;;;;;;5.63;2.80;;;28.50;47.30;;;;;;5051883;28;20757;-61
2023/06/05 12:31:11;;;;;;;8.88;3.83;;;28.50;47.30;;;;;;5051071;28;20226;-63
2023/06/05 12:33:47;;;;;;;4.57;2.42;;;28.70;48.00;;;;;;5051650;28;20206;-63
2023/06/05 12:36:14;;;;;;;3.42;2.85;;;29.00;47.80;;;;;;5051421;28;20232;-61
2023/06/05 12:38:42;;;;;;;3.90;2.97;;;29.00;47.20;;;;;;5051310;28;20216;-62
2023/06/05 12:41:10;;;;;;;4.35;3.20;;;28.90;46.90;;;;;;5051303;28;20244;-62
2023/06/05 12:43:38;;;;;;;3.97;2.90;;;28.80;47.10;;;;;;5051016;28;20304;-61
2023/06/05 12:46:06;;;;;;;4.47;3.10;;;28.60;46.30;;;;;;5050859;28;20209;-63
2023/06/05 12:48:33;;;;;;;6.10;3.22;;;28.50;47.40;;;;;;5051097;28;20193;-62
2023/06/05 12:51:00;;;;;;;7.40;3.33;;;28.50;47.20;;;;;;5051177;28;20258;-61
2023/06/05 12:53:27;;;;;;;5.80;3.42;;;28.50;46.70;;;;;;5051073;28;20210;-62
2023/06/05 12:55:53;;;;;;;6.10;3.22;;;28.40;47.00;;;;;;5050518;28;20717;-61
2023/06/05 12:58:21;;;;;;;8.40;3.10;;;28.50;47.40;;;;;;5051121;28;20213;-62